Time;durP1;ratioP1;P1;durP2;ratioP2;P2;SDS_P1;SDS_P2;PMS_P1;PMS_P2;Temp;Humidity;BMP_temperature;BMP_pressure;BME280_temperature;BME280_humidity;BME280_pressure;Samples;Min_cycle;Max_cycle;Signal;HPM_P1;HPM_P2
2021/12/02 00:02:10;;;;;;;30.80;18.00;;;;;;;6.13;68.72;94241.66;4801735;29;20200;-77
2021/12/02 00:04:38;;;;;;;29.90;17.53;;;;;;;6.13;68.73;94241.66;4835143;29;20782;-79
2021/12/02 00:07:06;;;;;;;32.90;18.87;;;;;;;6.12;68.77;94245.09;4838787;29;20246;-77
2021/12/02 00:09:33;;;;;;;32.50;18.80;;;;;;;6.11;68.84;94240.97;4838106;29;20283;-75
2021/12/02 00:12:03;;;;;;;26.63;17.77;;;;;;;6.12;68.83;94241.75;4838594;29;20202;-74
2021/12/02 00:14:39;;;;;;;26.97;16.90;;;;;;;6.01;68.95;94228.19;4838375;29;20272;-79
2021/12/02 00:17:09;;;;;;;25.33;17.07;;;;;;;6.08;69.00;94242.94;4837531;29;20205;-77
2021/12/02 00:22:24;;;;;;;28.47;18.07;;;;;;;6.02;68.86;94249.31;4837578;29;20273;-75
2021/12/02 00:24:56;;;;;;;30.20;18.33;;;;;;;6.03;68.82;94243.28;4867941;29;20583;-75
2021/12/02 00:27:27;;;;;;;31.07;17.43;;;;;;;6.01;68.95;94250.22;4876756;29;20200;-74
2021/12/02 00:29:57;;;;;;;29.07;17.97;;;;;;;5.99;69.04;94252.88;4876236;29;20217;-76
2021/12/02 00:32:27;;;;;;;29.50;18.13;;;;;;;5.98;68.97;94245.38;4876667;29;20200;-79
2021/12/02 00:34:56;;;;;;;25.83;17.10;;;;;;;5.94;68.97;94249.09;4876187;29;20663;-75
2021/12/02 00:37:23;;;;;;;26.27;16.87;;;;;;;5.95;69.00;94256.56;4876642;29;20205;-76
2021/12/02 00:39:52;;;;;;;26.43;16.73;;;;;;;5.95;68.96;94260.84;4876327;29;20280;-78
2021/12/02 00:42:20;;;;;;;28.33;16.10;;;;;;;5.43;68.97;94179.44;4876228;29;20207;-73
2021/12/02 00:44:48;;;;;;;27.50;15.63;;;;;;;5.90;69.29;94242.63;4859897;29;20192;-76
2021/12/02 00:47:16;;;;;;;26.83;16.33;;;;;;;5.89;69.13;94243.56;4876532;29;20192;-77
2021/12/02 00:49:47;;;;;;;24.13;15.67;;;;;;;5.75;69.04;94209.13;4875887;29;20243;-76
2021/12/02 00:52:17;;;;;;;24.63;14.03;;;;;;;5.90;69.17;94240.09;4875931;29;20257;-75
2021/12/02 00:54:46;;;;;;;23.37;14.17;;;;;;;5.39;69.19;94157.78;4876233;29;20203;-74
2021/12/02 00:57:14;;;;;;;22.00;13.70;;;;;;;5.82;69.38;94230.53;4876015;29;20284;-73
2021/12/02 00:59:42;;;;;;;23.70;14.87;;;;;;;5.89;69.04;94241.81;4875985;29;20193;-74
2021/12/02 01:02:11;;;;;;;22.53;14.83;;;;;;;5.89;69.30;94246.88;4875786;29;20215;-74
2021/12/02 01:04:39;;;;;;;25.20;14.10;;;;;;;5.89;69.37;94251.97;4876206;29;20189;-75
2021/12/02 01:07:06;;;;;;;25.60;14.17;;;;;;;5.88;69.23;94252.09;4876180;29;20189;-74
2021/12/02 01:09:33;;;;;;;22.63;14.13;;;;;;;5.87;69.16;94253.00;4876293;29;20672;-74
2021/12/02 01:12:01;;;;;;;22.23;13.07;;;;;;;5.88;69.31;94236.88;4875564;29;20193;-75
2021/12/02 01:14:28;;;;;;;21.50;14.53;;;;;;;5.82;69.13;94230.53;4876043;29;20616;-74
2021/12/02 01:16:56;;;;;;;23.43;14.23;;;;;;;5.84;69.31;94226.16;4875673;29;20736;-74
2021/12/02 01:19:24;;;;;;;22.87;14.97;;;;;;;5.75;69.31;94219.25;4875912;29;20200;-74
2021/12/02 01:21:52;;;;;;;21.80;14.77;;;;;;;5.86;69.43;94241.25;4875868;29;20207;-74
2021/12/02 01:24:20;;;;;;;20.80;14.10;;;;;;;5.85;69.34;94240.44;4876354;29;20193;-73
2021/12/02 01:26:53;;;;;;;23.63;14.43;;;;;;;5.85;69.42;94245.53;4875844;29;20201;-73
2021/12/02 01:29:23;;;;;;;24.33;14.23;;;;;;;5.85;69.54;94244.72;4875795;29;20201;-73
2021/12/02 01:31:53;;;;;;;23.47;14.47;;;;;;;5.85;69.55;94249.78;4875747;29;20201;-72
2021/12/02 01:34:27;;;;;;;23.20;13.77;;;;;;;5.76;69.45;94229.28;4878826;29;20222;-73
2021/12/02 01:36:55;;;;;;;25.40;13.87;;;;;;;5.85;69.66;94252.31;4879934;29;20196;-75
2021/12/02 01:39:23;;;;;;;20.73;14.20;;;;;;;5.85;69.79;94257.41;4880138;29;20190;-74
2021/12/02 01:41:53;;;;;;;23.63;14.40;;;;;;;5.86;69.70;94254.72;4879559;29;20193;-79
2021/12/02 01:44:21;;;;;;;23.77;14.87;;;;;;;5.85;70.06;94249.78;4880034;29;20193;-80
2021/12/02 01:46:50;;;;;;;26.20;15.00;;;;;;;5.84;70.18;94246.44;4879996;29;20583;-80
2021/12/02 01:49:19;;;;;;;29.87;15.57;;;;;;;5.85;70.20;94244.72;4879433;29;20205;-79
2021/12/02 01:51:49;;;;;;;22.50;14.13;;;;;;;5.85;70.25;94239.63;4879293;29;20256;-81
2021/12/02 01:54:18;;;;;;;23.40;12.97;;;;;;;5.85;70.22;94237.91;4879417;29;20193;-78
2021/12/02 01:56:47;;;;;;;21.73;13.50;;;;;;;5.86;70.13;94231.09;4879185;29;20208;-81
2021/12/02 01:59:17;;;;;;;26.23;14.17;;;;;;;5.84;70.17;94223.63;4879337;29;20201;-81
2021/12/02 02:01:47;;;;;;;27.23;14.43;;;;;;;5.82;70.09;94217.84;4879361;29;20197;-78
2021/12/02 02:04:15;;;;;;;20.47;11.97;;;;;;;5.83;69.90;94213.56;4879550;29;20189;-81
2021/12/02 02:06:53;;;;;;;21.17;12.90;;;;;;;5.85;70.12;94209.19;4879227;29;20607;-79
2021/12/02 02:09:20;;;;;;;21.70;12.37;;;;;;;5.85;70.14;94207.47;4879424;29;20205;-80
2021/12/02 02:11:47;;;;;;;22.20;13.53;;;;;;;5.84;70.04;94208.38;4878830;29;20240;-81
2021/12/02 02:14:14;;;;;;;19.50;12.60;;;;;;;5.75;70.14;94184.56;4878993;29;20241;-81
2021/12/02 02:16:41;;;;;;;17.43;11.90;;;;;;;5.81;70.06;94195.94;4879190;29;20215;-82
2021/12/02 02:19:10;;;;;;;18.93;11.63;;;;;;;5.59;69.95;94157.97;4879145;29;20201;-80
2021/12/02 02:21:39;;;;;;;20.20;11.40;;;;;;;5.85;69.85;94196.50;4879370;29;20197;-76
2021/12/02 02:24:10;;;;;;;20.10;11.07;;;;;;;5.87;69.79;94197.19;4878888;29;20209;-82
2021/12/02 02:26:37;;;;;;;15.80;11.27;;;;;;;5.87;69.87;94209.88;4879096;29;20262;-82
2021/12/02 02:29:06;;;;;;;17.23;10.33;;;;;;;5.83;69.80;94196.63;4878963;29;20225;-81
2021/12/02 02:31:34;;;;;;;19.47;10.83;;;;;;;5.88;69.37;94192.00;4878945;29;20225;-82
2021/12/02 02:34:01;;;;;;;13.23;9.30;;;;;;;5.75;69.66;94189.63;4879292;29;20193;-83
2021/12/02 02:36:30;;;;;;;18.00;9.93;;;;;;;5.89;69.68;94216.44;4879006;29;20197;-81
2021/12/02 02:38:59;;;;;;;17.07;10.63;;;;;;;5.90;69.63;94218.03;4878410;29;20240;-82
2021/12/02 02:41:29;;;;;;;16.77;10.53;;;;;;;5.90;69.55;94218.03;4878381;29;20258;-81
2021/12/02 02:44:00;;;;;;;18.37;10.47;;;;;;;5.91;69.64;94201.88;4878900;29;20268;-82
2021/12/02 02:46:28;;;;;;;15.90;10.67;;;;;;;5.64;69.59;94181.25;4878722;29;20655;-81
2021/12/02 02:48:57;;;;;;;22.30;11.37;;;;;;;5.77;69.44;94190.28;4878890;29;20190;-82
2021/12/02 02:51:24;;;;;;;18.33;11.30;;;;;;;5.91;69.73;94226.47;4878869;29;20244;-81
2021/12/02 02:53:55;;;;;;;15.90;10.93;;;;;;;5.89;69.59;94216.44;4878788;29;20205;-80
2021/12/02 02:56:27;;;;;;;20.93;11.87;;;;;;;5.92;69.63;94215.44;4878930;29;20201;-82
2021/12/02 02:59:05;;;;;;;17.53;11.67;;;;;;;5.90;69.63;94210.44;4878558;29;20193;-80
2021/12/02 03:01:44;;;;;;;17.43;11.47;;;;;;;5.90;69.61;94196.94;4878530;29;20193;-76
2021/12/02 03:04:29;;;;;;;15.23;10.23;;;;;;;5.90;69.64;94200.28;4877959;29;20328;-73
2021/12/02 03:07:00;;;;;;;16.80;11.40;;;;;;;5.90;69.61;94191.88;4878027;29;20283;-82
2021/12/02 03:09:46;;;;;;;17.60;11.43;;;;;;;5.86;69.55;94182.88;4877973;29;20639;-73
2021/12/02 03:12:19;;;;;;;18.10;11.87;;;;;;;5.89;69.57;94201.22;4877596;29;20935;-75
2021/12/02 03:17:32;;;;;;;18.73;12.23;;;;;;;5.87;69.67;94202.25;4838402;29;20202;-74
2021/12/02 03:19:59;;;;;;;21.43;11.87;;;;;;;5.86;69.94;94190.50;4838660;29;20215;-74
2021/12/02 03:22:27;;;;;;;19.63;12.13;;;;;;;5.84;69.85;94185.56;4838170;29;20222;-74
2021/12/02 03:24:54;;;;;;;19.27;11.70;;;;;;;5.83;69.82;94188.19;4838337;29;20202;-75
2021/12/02 03:27:22;;;;;;;16.70;10.40;;;;;;;5.84;70.07;94192.38;4837940;29;20219;-73
2021/12/02 03:29:49;;;;;;;17.17;10.80;;;;;;;5.84;70.13;94199.97;4838262;29;20205;-74
2021/12/02 03:32:16;;;;;;;16.60;11.13;;;;;;;5.85;69.92;94199.84;4838105;29;20210;-75
2021/12/02 03:34:42;;;;;;;18.87;11.23;;;;;;;5.85;69.83;94197.31;4838252;29;20327;-73
2021/12/02 03:37:10;;;;;;;18.30;10.90;;;;;;;5.81;69.85;94179.91;4838072;29;20258;-74
2021/12/02 03:39:37;;;;;;;14.27;10.23;;;;;;;5.85;69.76;94184.63;4838315;29;20399;-74
2021/12/02 03:42:05;;;;;;;20.00;10.87;;;;;;;5.85;69.79;94171.13;4837827;29;20209;-74
2021/12/02 03:44:33;;;;;;;17.03;10.53;;;;;;;5.62;69.80;94142.53;4838370;29;20198;-74
2021/12/02 03:47:00;;;;;;;17.33;10.13;;;;;;;5.85;69.76;94184.63;4838257;29;20210;-77
2021/12/02 03:49:28;;;;;;;17.70;10.80;;;;;;;5.78;69.77;94184.28;4838251;29;20655;-80
2021/12/02 03:51:55;;;;;;;13.87;10.60;;;;;;;5.86;69.55;94193.03;4838117;29;20234;-79
2021/12/02 03:54:22;;;;;;;12.60;9.53;;;;;;;5.83;69.45;94183.13;4851484;29;20734;-78
2021/12/02 03:56:49;;;;;;;17.97;11.07;;;;;;;5.86;69.58;94188.75;4877252;29;20212;-78
2021/12/02 03:59:16;;;;;;;20.33;10.43;;;;;;;5.86;69.48;94191.31;4877383;29;20197;-78
2021/12/02 04:01:44;;;;;;;15.30;10.10;;;;;;;5.84;69.49;94177.94;4877910;29;20204;-75
2021/12/02 04:04:11;;;;;;;17.30;10.40;;;;;;;5.84;69.85;94172.88;4879228;29;20566;-78
2021/12/02 04:06:38;;;;;;;21.87;10.60;;;;;;;5.84;69.53;94177.13;4881007;29;20586;-76
2021/12/02 04:09:11;;;;;;;14.57;9.70;;;;;;;5.83;69.64;94168.72;4878770;29;20217;-78
2021/12/02 04:11:41;;;;;;;13.57;10.63;;;;;;;5.82;69.52;94182.31;4877230;29;20262;-76
2021/12/02 04:14:14;;;;;;;14.63;10.93;;;;;;;5.81;69.55;94170.56;4876748;29;20642;-75
2021/12/02 04:16:51;;;;;;;20.57;11.60;;;;;;;5.80;69.46;94171.50;4877194;29;20204;-78
2021/12/02 04:19:20;;;;;;;16.13;11.00;;;;;;;5.78;69.71;94183.50;4876232;29;20285;-74
2021/12/02 04:21:47;;;;;;;16.50;11.30;;;;;;;5.76;69.44;94180.28;4877084;29;20266;-76
2021/12/02 04:24:14;;;;;;;16.60;10.80;;;;;;;5.55;69.56;94144.72;4876627;29;20204;-76
2021/12/02 04:26:42;;;;;;;19.57;11.30;;;;;;;5.72;69.42;94183.97;4877021;29;20197;-80
2021/12/02 04:29:10;;;;;;;18.93;10.97;;;;;;;5.74;69.33;94185.50;4876405;29;20205;-78
2021/12/02 04:31:36;;;;;;;15.00;10.40;;;;;;;5.74;69.65;94177.88;4876518;29;20233;-75
2021/12/02 04:34:04;;;;;;;15.23;10.50;;;;;;;5.73;69.51;94165.28;4876678;29;20197;-75
2021/12/02 04:36:32;;;;;;;12.33;9.87;;;;;;;5.73;69.49;94163.56;4876429;29;20197;-74
2021/12/02 04:38:59;;;;;;;12.73;9.90;;;;;;;5.72;69.80;94163.69;4876196;29;20208;-73
2021/12/02 04:41:25;;;;;;;15.77;10.20;;;;;;;5.70;69.68;94163.81;4876238;29;20241;-75
2021/12/02 04:43:52;;;;;;;17.30;10.73;;;;;;;5.69;69.69;94167.25;4876168;29;20209;-77
2021/12/02 04:46:19;;;;;;;16.83;10.20;;;;;;;5.63;69.51;94155.06;4876498;29;20204;-77
2021/12/02 04:48:46;;;;;;;15.00;10.27;;;;;;;5.63;69.43;94144.13;4876448;29;20201;-74
2021/12/02 04:51:13;;;;;;;14.03;10.63;;;;;;;5.60;69.50;94149.44;4875930;29;20239;-73
2021/12/02 04:53:41;;;;;;;17.23;10.83;;;;;;;5.66;69.57;94164.19;4876474;29;20200;-75
2021/12/02 04:56:08;;;;;;;16.97;9.93;;;;;;;5.65;69.75;94158.28;4859897;29;20197;-75
2021/12/02 04:58:35;;;;;;;17.63;10.20;;;;;;;5.65;69.52;94157.47;4875912;29;20201;-75
2021/12/02 05:01:01;;;;;;;15.70;10.00;;;;;;;5.64;69.69;94149.06;4876223;29;20216;-75
2021/12/02 05:03:28;;;;;;;15.20;10.10;;;;;;;5.64;69.75;94138.13;4876153;29;20201;-77
2021/12/02 05:05:55;;;;;;;15.83;9.93;;;;;;;5.64;69.75;94136.38;4875822;29;20291;-74
2021/12/02 05:08:22;;;;;;;15.50;10.27;;;;;;;5.65;69.83;94134.66;4875643;29;20200;-77
2021/12/02 05:10:50;;;;;;;15.97;9.77;;;;;;;5.66;69.79;94132.00;4875844;29;20236;-77
2021/12/02 05:13:17;;;;;;;14.90;10.57;;;;;;;5.66;69.78;94132.00;4875942;29;20228;-74
2021/12/02 05:15:44;;;;;;;12.33;9.77;;;;;;;5.61;70.09;94129.00;4876065;29;20197;-74
2021/12/02 05:18:10;;;;;;;14.10;10.03;;;;;;;5.48;69.88;94108.91;4876064;29;20201;-75
2021/12/02 05:20:37;;;;;;;17.73;10.80;;;;;;;5.67;69.86;94137.88;4875947;29;20193;-76
2021/12/02 05:23:04;;;;;;;17.37;10.50;;;;;;;5.67;69.86;94145.50;4876042;29;20197;-73
2021/12/02 05:25:31;;;;;;;24.17;11.30;;;;;;;5.46;69.77;94115.03;4875873;29;20200;-74
2021/12/02 05:27:59;;;;;;;19.17;12.23;;;;;;;5.65;69.62;94138.00;4875797;29;20209;-73
2021/12/02 05:30:26;;;;;;;20.07;13.20;;;;;;;5.64;69.61;94136.38;4876060;29;20193;-73
2021/12/02 05:32:53;;;;;;;17.57;12.60;;;;;;;5.60;69.60;94124.06;4875608;29;20675;-75
2021/12/02 05:35:20;;;;;;;22.20;14.10;;;;;;;5.53;69.54;94114.44;4875915;29;20193;-73
2021/12/02 05:37:47;;;;;;;20.00;12.77;;;;;;;5.62;69.48;94132.38;4875794;29;20284;-74
2021/12/02 05:40:14;;;;;;;20.80;13.77;;;;;;;5.62;69.52;94135.72;4875789;29;20232;-73
2021/12/02 05:42:41;;;;;;;21.00;14.53;;;;;;;5.63;69.54;94133.97;4875769;29;20224;-73
2021/12/02 05:45:10;;;;;;;25.10;15.33;;;;;;;5.62;69.52;94137.44;4876021;29;20212;-78
2021/12/02 05:47:37;;;;;;;27.87;16.03;;;;;;;5.40;69.83;94101.13;4875767;29;20233;-75
2021/12/02 05:50:04;;;;;;;23.07;16.33;;;;;;;5.62;69.53;94135.72;4875881;29;20212;-78
2021/12/02 05:52:31;;;;;;;29.87;16.47;;;;;;;5.50;69.53;94114.66;4875782;29;20263;-76
2021/12/02 05:54:58;;;;;;;23.70;15.53;;;;;;;5.65;69.64;94142.25;4877965;29;20201;-74
2021/12/02 05:57:26;;;;;;;25.80;15.87;;;;;;;5.66;69.68;94138.81;4894794;29;20615;-78
2021/12/02 05:59:53;;;;;;;22.43;16.17;;;;;;;5.69;69.63;94141.91;4896292;29;20663;-74
2021/12/02 06:02:22;;;;;;;25.90;17.77;;;;;;;5.65;69.50;94127.03;4895531;29;20201;-78
2021/12/02 06:04:51;;;;;;;26.10;17.57;;;;;;;5.75;69.50;94138.09;4895303;29;20200;-73
2021/12/02 06:07:18;;;;;;;29.40;19.00;;;;;;;5.68;69.49;94129.34;4895044;29;20183;-74
2021/12/02 06:09:45;;;;;;;26.77;17.87;;;;;;;5.80;69.48;94138.53;4882487;29;20230;-78
2021/12/02 06:12:12;;;;;;;32.03;19.00;;;;;;;6.00;69.08;94150.47;4861174;29;20241;-80
2021/12/02 06:14:39;;;;;;;32.00;21.07;;;;;;;6.24;68.68;94139.22;4859329;29;20236;-77
2021/12/02 06:17:06;;;;;;;32.83;20.40;;;;;;;6.36;68.32;94124.72;4860072;29;20194;-80
2021/12/02 06:19:34;;;;;;;33.83;21.47;;;;;;;6.85;68.00;94139.22;4858872;29;20193;-81
2021/12/02 06:22:01;;;;;;;37.13;23.33;;;;;;;7.19;67.51;94142.28;4859250;29;20202;-78
2021/12/02 06:24:31;;;;;;;35.73;22.60;;;;;;;7.61;67.34;94156.53;4860574;29;20206;-80
2021/12/02 06:26:58;;;;;;;36.80;22.03;;;;;;;8.00;67.48;94158.13;4860242;29;20297;-81
2021/12/02 06:29:26;;;;;;;35.33;24.50;;;;;;;8.44;66.93;94160.25;4858588;29;20197;-78
2021/12/02 06:31:53;;;;;;;35.50;26.23;;;;;;;8.87;66.55;94157.16;4867777;29;20228;-75
2021/12/02 06:34:21;;;;;;;35.73;25.17;;;;;;;9.26;66.26;94152.66;4879082;29;20193;-78
2021/12/02 06:36:51;;;;;;;43.07;28.03;;;;;;;9.72;65.81;94148.34;4889245;29;20209;-83
2021/12/02 06:39:18;;;;;;;47.27;27.77;;;;;;;10.19;65.29;94160.03;4881972;29;20259;-79
2021/12/02 06:41:45;;;;;;;42.90;29.13;;;;;;;10.59;64.40;94159.56;4889634;29;20264;-82
2021/12/02 06:44:13;;;;;;;42.60;28.40;;;;;;;11.02;63.85;94163.78;4882028;29;20208;-84
2021/12/02 06:46:40;;;;;;;48.17;30.53;;;;;;;11.46;63.00;94167.94;4894503;29;20204;-82
2021/12/02 06:49:07;;;;;;;46.57;31.07;;;;;;;11.88;62.04;94157.66;4886206;29;20198;-83
2021/12/02 06:51:33;;;;;;;44.13;29.97;;;;;;;12.32;61.24;94162.47;4890276;29;20212;-80
2021/12/02 06:54:04;;;;;;;47.20;30.23;;;;;;;12.68;60.42;94151.81;4876681;29;20219;-83
2021/12/02 06:56:31;;;;;;;46.37;30.57;;;;;;;13.04;59.88;94139.41;4876164;29;20236;-82
2021/12/02 06:58:58;;;;;;;44.77;29.93;;;;;;;13.22;59.20;94141.72;4885126;29;20654;-79
2021/12/02 07:01:24;;;;;;;38.97;28.63;;;;;;;13.51;58.45;94151.38;4888371;29;20209;-79
2021/12/02 07:03:51;;;;;;;41.53;30.40;;;;;;;13.64;57.33;94167.03;4876164;29;20204;-81
2021/12/02 07:06:18;;;;;;;44.83;29.80;;;;;;;13.61;56.26;94159.69;4884556;29;20196;-80
2021/12/02 07:08:45;;;;;;;44.03;30.10;;;;;;;13.49;55.45;94149.00;4889276;29;20217;-85
2021/12/02 07:11:13;;;;;;;48.37;33.23;;;;;;;13.38;54.88;94143.44;4887941;29;20204;-79
2021/12/02 07:13:40;;;;;;;46.00;32.60;;;;;;;13.17;54.37;94131.13;4887130;29;20229;-80
2021/12/02 07:16:07;;;;;;;51.53;34.23;;;;;;;13.13;54.05;94153.00;4877249;29;20201;-80
2021/12/02 07:18:38;;;;;;;49.83;34.40;;;;;;;13.02;53.69;94154.13;4876397;29;20201;-85
2021/12/02 07:21:05;;;;;;;50.47;34.33;;;;;;;12.90;53.52;94148.56;4881744;29;20208;-78
2021/12/02 07:23:32;;;;;;;53.37;34.27;;;;;;;12.88;53.34;94150.50;4878231;29;20201;-75
2021/12/02 07:25:59;;;;;;;47.60;34.43;;;;;;;13.06;52.46;94148.50;4875004;29;20202;-76
2021/12/02 07:28:28;;;;;;;48.33;33.90;;;;;;;13.27;52.25;94131.78;4873623;29;20265;-76
2021/12/02 07:30:56;;;;;;;50.23;33.30;;;;;;;13.47;52.10;94114.97;4872841;29;20213;-73
2021/12/02 07:33:27;;;;;;;51.53;34.37;;;;;;;13.81;51.99;94119.72;4874463;29;20614;-79
2021/12/02 07:35:54;;;;;;;49.23;33.57;;;;;;;14.04;51.68;94124.06;4874469;29;20216;-76
2021/12/02 07:38:25;;;;;;;48.77;33.43;;;;;;;14.33;51.34;94146.47;4874056;29;20205;-76
2021/12/02 07:40:51;;;;;;;43.17;30.13;;;;;;;14.30;51.13;94136.56;4874127;29;20212;-77
2021/12/02 07:43:20;;;;;;;47.37;31.63;;;;;;;14.34;50.83;94153.25;4871298;29;20209;-76
2021/12/02 07:45:49;;;;;;;41.20;26.43;;;;;;;14.30;50.66;94141.69;4876569;29;20219;-77
2021/12/02 07:48:17;;;;;;;47.03;23.27;;;;;;;14.27;50.23;94142.03;4876811;29;20201;-78
2021/12/02 07:50:45;;;;;;;31.87;21.53;;;;;;;14.15;50.33;94133.94;4883378;29;20211;-78
2021/12/02 07:53:14;;;;;;;31.80;19.93;;;;;;;14.16;50.05;94150.97;4877069;29;20320;-79
2021/12/02 07:55:41;;;;;;;31.27;19.87;;;;;;;14.17;49.93;94149.22;4885247;29;20198;-78
2021/12/02 07:58:10;;;;;;;27.17;17.33;;;;;;;14.24;49.53;94157.81;4877044;29;20208;-77
2021/12/02 08:00:38;;;;;;;23.00;15.83;;;;;;;14.26;49.28;94161.81;4880653;29;20216;-79
2021/12/02 08:03:09;;;;;;;23.00;15.57;;;;;;;14.24;48.98;94168.09;4888482;29;20310;-82
2021/12/02 08:05:36;;;;;;;10.10;8.20;;;;;;;14.52;77.25;94166.63;4870573;29;20202;-83
2021/12/02 08:08:03;;;;;;;11.37;8.33;;;;;;;15.08;76.99;94152.56;4877846;29;20208;-83
2021/12/02 08:10:31;;;;;;;10.87;7.37;;;;;;;15.71;74.66;94153.72;4876363;29;20224;-79
2021/12/02 08:12:59;;;;;;;10.10;7.70;;;;;;;16.41;71.54;94157.34;4876563;29;20725;-77
2021/12/02 08:15:38;;;;;;;10.33;8.20;;;;;;;17.16;64.56;94151.50;4877002;29;20236;-83
2021/12/02 08:18:07;;;;;;;12.90;8.90;;;;;;;17.51;58.54;94146.28;4877059;29;20212;-77
2021/12/02 08:20:37;;;;;;;12.20;9.43;;;;;;;17.58;56.85;94141.94;4877253;29;20679;-81
2021/12/02 08:23:04;;;;;;;14.23;9.10;;;;;;;17.46;55.48;94154.63;4875382;29;20204;-79
2021/12/02 08:25:33;;;;;;;11.43;7.60;;;;;;;17.22;53.77;94153.31;4875932;29;20212;-79
2021/12/02 08:28:01;;;;;;;11.37;7.40;;;;;;;17.03;52.56;94154.03;4879079;29;20683;-79
2021/12/02 08:30:30;;;;;;;14.20;7.60;;;;;;;16.95;51.50;94149.81;4876177;29;20209;-80
2021/12/02 08:32:59;;;;;;;16.47;8.13;;;;;;;16.80;50.41;94151.72;4880095;29;20279;-79
2021/12/02 08:35:29;;;;;;;12.23;7.83;;;;;;;16.52;49.61;94131.03;4877905;29;20226;-80
2021/12/02 08:38:00;;;;;;;17.30;9.33;;;;;;;16.58;48.53;94150.09;4877679;29;20204;-80
2021/12/02 08:40:30;;;;;;;13.73;10.50;;;;;;;16.30;48.13;94146.53;4889715;29;20207;-79
2021/12/02 08:42:58;;;;;;;15.53;8.80;;;;;;;16.02;48.18;94143.13;4873525;29;20201;-77
2021/12/02 08:45:25;;;;;;;13.47;8.93;;;;;;;15.76;47.90;94139.31;4874424;29;20209;-79
2021/12/02 08:47:51;;;;;;;14.43;8.30;;;;;;;15.46;47.90;94135.97;4877914;29;20205;-78
2021/12/02 08:50:21;;;;;;;9.70;7.40;;;;;;;15.32;47.58;94136.78;4877606;29;20560;-76
2021/12/02 08:52:51;;;;;;;12.93;8.23;;;;;;;15.13;47.61;94129.63;4877111;29;20236;-79
2021/12/02 08:55:19;;;;;;;9.77;7.33;;;;;;;14.95;47.76;94124.84;4877040;29;20193;-80
2021/12/02 08:57:47;;;;;;;10.53;7.30;;;;;;;14.78;47.73;94119.09;4877766;29;20205;-77
2021/12/02 09:00:16;;;;;;;12.03;6.67;;;;;;;14.63;47.85;94115.69;4878395;29;20204;-76
2021/12/02 09:02:43;;;;;;;11.27;7.10;;;;;;;14.46;47.75;94109.88;4880219;29;20201;-81
2021/12/02 09:05:11;;;;;;;10.37;7.17;;;;;;;14.06;47.70;94070.69;4879920;29;20204;-77
2021/12/02 09:07:38;;;;;;;10.53;7.00;;;;;;;14.23;47.97;94118.44;4882361;29;20211;-79
2021/12/02 09:10:09;;;;;;;9.70;7.00;;;;;;;14.12;47.95;94113.72;4883406;29;20189;-76
2021/12/02 09:12:36;;;;;;;9.87;7.03;;;;;;;14.01;47.88;94116.69;4881082;29;20231;-76
2021/12/02 09:15:04;;;;;;;13.13;6.90;;;;;;;13.88;47.90;94104.41;4881038;29;20734;-77
2021/12/02 09:17:30;;;;;;;14.93;7.70;;;;;;;13.77;47.77;94085.09;4882953;29;20652;-77
2021/12/02 09:19:57;;;;;;;14.37;8.53;;;;;;;13.52;47.89;94074.16;4885661;29;20205;-79
2021/12/02 09:22:24;;;;;;;11.50;7.43;;;;;;;13.57;47.96;94086.50;4882540;29;20197;-78
2021/12/02 09:24:51;;;;;;;9.50;7.50;;;;;;;13.49;48.20;94101.97;4880161;29;20204;-77
2021/12/02 09:27:19;;;;;;;11.07;7.53;;;;;;;13.42;48.26;94094.13;4882890;29;20193;-76
2021/12/02 09:29:46;;;;;;;11.43;6.97;;;;;;;13.36;48.38;94088.88;4881556;29;20205;-77
2021/12/02 09:32:13;;;;;;;10.83;7.43;;;;;;;13.29;48.32;94084.41;4889070;29;20605;-74
2021/12/02 09:34:40;;;;;;;12.83;7.90;;;;;;;13.24;48.27;94078.19;4898759;29;20192;-76
2021/12/02 09:37:07;;;;;;;11.73;7.43;;;;;;;13.14;48.60;94069.88;4900315;29;20196;-77
2021/12/02 09:39:34;;;;;;;11.03;8.00;;;;;;;13.06;48.51;94086.09;4898599;29;20204;-77
2021/12/02 09:42:02;;;;;;;12.57;7.83;;;;;;;13.10;48.62;94087.38;4898879;29;20201;-75
2021/12/02 09:44:31;;;;;;;9.50;6.53;;;;;;;12.83;48.50;94042.44;4886758;29;20208;-78
2021/12/02 09:46:58;;;;;;;12.20;7.17;;;;;;;13.05;48.46;94076.81;4877847;29;20196;-77
2021/12/02 09:49:25;;;;;;;13.30;7.10;;;;;;;13.05;48.55;94066.53;4879163;29;20202;-77
2021/12/02 09:52:00;;;;;;;8.80;6.53;;;;;;;12.91;48.65;94049.28;4877014;29;20205;-79
2021/12/02 09:54:30;;;;;;;10.97;7.37;;;;;;;12.88;48.73;94036.78;4878984;29;20196;-78
2021/12/02 09:57:00;;;;;;;8.57;7.10;;;;;;;12.96;48.79;94049.59;4879423;29;20201;-78
2021/12/02 09:59:29;;;;;;;10.17;7.43;;;;;;;12.95;48.80;94045.41;4877952;29;20197;-77
2021/12/02 10:02:01;;;;;;;10.40;7.00;;;;;;;12.91;48.89;94047.53;4878867;29;20777;-75
2021/12/02 10:04:29;;;;;;;11.17;7.30;;;;;;;12.99;49.13;94044.91;4876973;29;20292;-75
2021/12/02 10:07:14;;;;;;;10.47;7.03;;;;;;;13.05;49.08;94054.50;4876996;29;20212;-75
2021/12/02 10:09:44;;;;;;;11.10;7.30;;;;;;;13.05;49.13;94046.81;4878177;29;20197;-77
2021/12/02 10:12:16;;;;;;;12.43;7.70;;;;;;;12.99;49.19;94021.00;4878332;29;20646;-78
2021/12/02 10:14:50;;;;;;;18.67;7.40;;;;;;;13.09;48.89;94031.06;4876479;29;20296;-75
2021/12/02 10:17:24;;;;;;;9.33;7.10;;;;;;;13.11;49.08;94034.25;4877964;29;20197;-78
2021/12/02 10:20:11;;;;;;;12.60;7.10;;;;;;;13.16;48.91;94026.84;4876343;29;20671;-79
2021/12/02 10:22:38;;;;;;;11.77;7.80;;;;;;;12.77;48.90;93964.34;4876885;29;20212;-78
2021/12/02 10:25:05;;;;;;;12.43;8.00;;;;;;;13.26;48.70;94038.53;4878732;29;20600;-79
2021/12/02 10:27:32;;;;;;;10.90;7.53;;;;;;;13.27;48.71;94027.28;4878845;29;20193;-78
2021/12/02 10:29:59;;;;;;;8.97;7.00;;;;;;;13.31;48.79;94025.19;4878721;29;20300;-77
2021/12/02 10:32:32;;;;;;;10.23;7.07;;;;;;;13.32;48.70;94015.72;4877985;29;20213;-80
2021/12/02 10:35:01;;;;;;;9.70;6.90;;;;;;;13.33;48.41;94020.66;4878212;29;20197;-78
2021/12/02 10:37:30;;;;;;;10.30;7.57;;;;;;;13.34;48.48;94017.13;4878331;29;20213;-79
2021/12/02 10:40:00;;;;;;;9.17;7.07;;;;;;;13.35;48.48;94007.69;4879138;29;20212;-78
2021/12/02 10:42:28;;;;;;;12.23;6.70;;;;;;;13.37;48.38;94013.44;4878465;29;20590;-79
2021/12/02 10:44:58;;;;;;;13.47;7.50;;;;;;;13.39;48.41;94002.03;4879346;29;20204;-79
2021/12/02 10:47:25;;;;;;;8.90;7.17;;;;;;;13.38;48.32;93981.63;4876427;29;20200;-78
2021/12/02 10:49:56;;;;;;;10.03;6.67;;;;;;;13.38;48.27;93969.59;4878310;29;20201;-79
2021/12/02 10:52:25;;;;;;;8.53;6.73;;;;;;;13.46;48.15;93981.56;4878139;29;20197;-79
2021/12/02 10:54:57;;;;;;;12.07;7.80;;;;;;;13.46;48.20;93976.44;4878298;29;20208;-79
2021/12/02 10:57:26;;;;;;;9.47;6.97;;;;;;;13.47;48.13;93978.03;4878434;29;20203;-78
2021/12/02 10:59:55;;;;;;;8.60;6.77;;;;;;;13.49;48.05;93981.25;4878344;29;20232;-79
2021/12/02 11:02:25;;;;;;;9.83;7.20;;;;;;;13.24;48.07;93935.19;4877483;29;20201;-80
2021/12/02 11:04:56;;;;;;;8.77;7.00;;;;;;;13.54;48.24;93966.09;4877991;29;20200;-81
2021/12/02 11:07:26;;;;;;;10.07;6.93;;;;;;;13.47;47.87;93945.47;4877144;29;20620;-78
2021/12/02 11:09:55;;;;;;;12.47;7.53;;;;;;;13.46;48.13;93935.34;4878175;29;20211;-82
2021/12/02 11:12:24;;;;;;;11.43;7.63;;;;;;;13.60;48.05;93946.63;4875801;29;20244;-78
2021/12/02 11:15:02;;;;;;;9.73;7.83;;;;;;;13.62;47.80;93952.38;4877314;29;20232;-79
2021/12/02 11:17:32;;;;;;;16.70;8.50;;;;;;;13.63;47.99;93952.22;4877605;29;20196;-77
2021/12/02 11:20:02;;;;;;;10.40;7.13;;;;;;;13.64;48.08;93935.81;4877382;29;20232;-75
2021/12/02 11:22:30;;;;;;;11.33;7.77;;;;;;;13.66;47.94;93933.88;4877276;29;20197;-78
2021/12/02 11:24:58;;;;;;;11.37;8.03;;;;;;;13.38;48.14;93896.88;4877738;29;20197;-79
2021/12/02 11:27:28;;;;;;;12.43;8.03;;;;;;;13.62;47.97;93940.34;4877722;29;20579;-77
2021/12/02 11:30:05;;;;;;;14.73;7.83;;;;;;;13.68;47.74;93941.41;4877074;29;20228;-74
2021/12/02 11:32:41;;;;;;;9.20;7.30;;;;;;;13.61;47.79;93922.53;4877195;29;20208;-80
2021/12/02 11:35:20;;;;;;;11.23;7.30;;;;;;;13.47;47.98;93900.97;4877750;29;20201;-82
2021/12/02 11:37:49;;;;;;;9.40;7.03;;;;;;;13.66;47.98;93913.31;4882062;29;20200;-77